createdAt,value
2022-12-12T00:00:23.189Z,6.20
2022-12-12T00:02:50.467Z,7.03
2022-12-12T00:05:18.769Z,6.45
2022-12-12T00:07:45.997Z,8.57
2022-12-12T00:10:13.063Z,7.90
2022-12-12T00:12:40.694Z,6.53
2022-12-12T00:15:08.771Z,7.47
2022-12-12T00:17:35.800Z,4.90
2022-12-12T00:20:02.991Z,6.70
2022-12-12T00:22:29.986Z,4.68
2022-12-12T00:24:56.984Z,4.63
2022-12-12T00:27:24.295Z,6.30
2022-12-12T00:29:55.942Z,4.78
2022-12-12T00:32:22.952Z,5.40
2022-12-12T00:34:50.031Z,5.43
2022-12-12T00:37:17.137Z,4.28
2022-12-12T00:39:44.229Z,5.85
2022-12-12T00:42:11.286Z,4.75
2022-12-12T00:44:38.330Z,4.70
2022-12-12T00:47:05.413Z,4.38
2022-12-12T00:49:32.738Z,3.83
2022-12-12T00:51:59.783Z,5.22
2022-12-12T00:54:26.845Z,3.17
2022-12-12T00:56:53.931Z,6.97
2022-12-12T00:59:20.991Z,3.63
2022-12-12T01:01:48.091Z,4.40
2022-12-12T01:04:15.792Z,3.85
2022-12-12T01:06:42.780Z,4.40
2022-12-12T01:09:09.803Z,4.45
2022-12-12T01:11:36.743Z,3.50
2022-12-12T01:14:04.552Z,3.75
2022-12-12T01:16:31.854Z,3.15
2022-12-12T01:18:59.705Z,4.90
2022-12-12T01:21:26.718Z,4.55
2022-12-12T01:23:53.776Z,3.17
2022-12-12T01:26:23.775Z,4.28
2022-12-12T01:28:51.465Z,7.18
2022-12-12T01:31:18.565Z,4.13
2022-12-12T01:33:46.119Z,8.65
2022-12-12T01:36:16.588Z,2.85
2022-12-12T01:38:45.973Z,3.88
2022-12-12T01:41:14.053Z,3.47
2022-12-12T01:43:41.099Z,3.78
2022-12-12T01:46:40.590Z,2.83
2022-12-12T01:49:23.427Z,3.17
2022-12-12T01:51:53.881Z,3.55
2022-12-12T01:54:29.266Z,3.55
2022-12-12T01:56:58.497Z,4.85
2022-12-12T01:59:27.373Z,2.10
2022-12-12T02:01:55.315Z,2.25
2022-12-12T02:04:23.633Z,5.43
2022-12-12T02:06:52.158Z,2.45
2022-12-12T02:09:20.973Z,2.08
2022-12-12T02:11:52.218Z,1.75
2022-12-12T02:14:23.972Z,3.85
2022-12-12T02:16:56.855Z,3.53
2022-12-12T02:19:42.728Z,3.42
2022-12-12T02:22:24.847Z,3.97
2022-12-12T02:25:14.291Z,2.45
2022-12-12T02:28:11.507Z,4.22
2022-12-12T02:31:00.044Z,2.38
2022-12-12T02:33:45.895Z,2.70
2022-12-12T02:36:27.778Z,4.22
2022-12-12T02:39:28.000Z,2.78
2022-12-12T02:42:00.525Z,3.10
2022-12-12T02:44:42.260Z,3.17
2022-12-12T02:47:29.989Z,2.80
2022-12-12T02:50:14.074Z,2.88
2022-12-12T02:52:44.019Z,3.15
2022-12-12T02:55:11.507Z,2.38
2022-12-12T02:57:41.727Z,5.35
2022-12-12T03:00:15.859Z,3.70
2022-12-12T03:03:26.051Z,2.67
2022-12-12T03:06:53.281Z,2.17
2022-12-12T03:09:42.079Z,1.48
2022-12-12T03:12:38.661Z,3.25
2022-12-12T03:15:22.651Z,3.13
2022-12-12T03:18:09.542Z,3.63
2022-12-12T03:20:36.825Z,2.80
2022-12-12T03:23:18.457Z,3.83
2022-12-12T03:25:57.174Z,3.40
2022-12-12T03:28:30.896Z,2.72
2022-12-12T03:31:04.268Z,2.13
2022-12-12T03:33:52.116Z,4.18
2022-12-12T03:36:27.328Z,3.38
2022-12-12T03:39:06.180Z,3.20
2022-12-12T03:41:40.171Z,2.95
2022-12-12T03:44:22.790Z,2.38
2022-12-12T03:47:06.077Z,2.28
2022-12-12T03:49:44.332Z,3.40
2022-12-12T03:52:22.941Z,2.83
2022-12-12T03:55:19.960Z,3.08
2022-12-12T03:58:12.886Z,5.35
2022-12-12T04:00:42.811Z,2.80
2022-12-12T04:03:21.528Z,2.42
2022-12-12T04:06:26.904Z,2.30
2022-12-12T04:09:23.763Z,3.13
2022-12-12T04:12:33.902Z,2.90
2022-12-12T04:15:31.020Z,3.13
2022-12-12T04:18:09.640Z,2.72
2022-12-12T04:21:07.036Z,5.82
2022-12-12T04:23:49.073Z,3.58
2022-12-12T04:26:39.382Z,3.83
2022-12-12T04:29:24.218Z,2.15
2022-12-12T04:32:05.663Z,2.95
2022-12-12T04:34:36.506Z,3.20
2022-12-12T04:37:05.753Z,3.67
2022-12-12T04:39:34.914Z,2.80
2022-12-12T04:42:05.134Z,3.53
2022-12-12T04:44:34.791Z,2.22
2022-12-12T04:47:03.775Z,2.28
2022-12-12T04:49:33.166Z,2.75
2022-12-12T04:52:05.450Z,5.22
2022-12-12T04:54:39.352Z,3.13
2022-12-12T04:57:10.750Z,2.78
2022-12-12T04:59:38.417Z,3.50
2022-12-12T05:02:32.925Z,3.67
2022-12-12T05:05:27.052Z,3.40
2022-12-12T05:10:27.664Z,3.03
2022-12-12T05:12:59.841Z,3.22
2022-12-12T05:15:28.673Z,3.55
2022-12-12T05:18:08.972Z,8.18
2022-12-12T05:20:36.047Z,2.30
2022-12-12T05:23:03.130Z,4.63
2022-12-12T05:25:30.286Z,4.07
2022-12-12T05:27:57.395Z,2.55
2022-12-12T05:30:25.529Z,3.58
2022-12-12T05:32:52.689Z,4.65
2022-12-12T05:35:19.725Z,2.65
2022-12-12T05:37:51.711Z,4.53
2022-12-12T05:40:20.111Z,2.83
2022-12-12T05:42:48.225Z,3.63
2022-12-12T05:45:15.477Z,6.13
2022-12-12T05:47:43.106Z,6.95
2022-12-12T05:50:10.256Z,4.38
2022-12-12T05:52:37.332Z,2.78
2022-12-12T05:55:05.281Z,2.80
2022-12-12T05:57:32.247Z,3.88
2022-12-12T05:59:59.301Z,3.65
2022-12-12T06:02:26.291Z,2.72
2022-12-12T06:04:53.344Z,3.03
2022-12-12T06:07:20.311Z,5.90
2022-12-12T06:09:47.418Z,4.88
2022-12-12T06:12:14.430Z,5.90
2022-12-12T06:14:41.558Z,5.00
2022-12-12T06:17:08.533Z,4.90
2022-12-12T06:19:35.681Z,5.68
2022-12-12T06:22:02.642Z,3.33
2022-12-12T06:24:29.616Z,5.25
2022-12-12T06:26:56.567Z,6.30
2022-12-12T06:29:23.550Z,5.88
2022-12-12T06:31:50.579Z,4.18
2022-12-12T06:34:17.552Z,6.45
2022-12-12T06:36:44.871Z,7.35
2022-12-12T06:39:11.951Z,4.55
2022-12-12T06:41:39.909Z,6.28
2022-12-12T06:44:07.282Z,6.05
2022-12-12T06:46:34.382Z,4.53
2022-12-12T06:49:01.727Z,4.78
2022-12-12T06:51:36.387Z,6.00
2022-12-12T06:54:04.221Z,8.55
2022-12-12T06:56:31.232Z,6.63
2022-12-12T06:58:59.649Z,7.00
2022-12-12T07:01:26.719Z,5.65
2022-12-12T07:03:53.828Z,8.25
2022-12-12T07:06:22.383Z,5.00
2022-12-12T07:08:50.115Z,5.53
2022-12-12T07:11:23.436Z,7.90
2022-12-12T07:13:50.824Z,6.60
2022-12-12T07:16:19.093Z,6.25
2022-12-12T07:18:46.640Z,5.57
2022-12-12T07:21:16.628Z,4.65
2022-12-12T07:23:43.864Z,10.77
2022-12-12T07:26:16.471Z,9.50
2022-12-12T07:28:43.463Z,3.88
2022-12-12T07:31:13.152Z,7.03
2022-12-12T07:33:44.145Z,11.57
2022-12-12T07:36:12.873Z,6.57
2022-12-12T07:38:40.150Z,10.00
2022-12-12T07:41:13.138Z,6.05
2022-12-12T07:43:44.400Z,5.22
2022-12-12T07:46:15.555Z,5.90
2022-12-12T07:48:42.695Z,7.82
2022-12-12T07:51:09.668Z,8.27
2022-12-12T07:53:36.663Z,11.77
2022-12-12T07:56:08.613Z,7.57
2022-12-12T07:58:36.078Z,9.32
2022-12-12T08:01:14.703Z,6.85
2022-12-12T08:03:42.995Z,10.15
2022-12-12T08:06:10.229Z,9.93
2022-12-12T08:08:37.418Z,6.97
2022-12-12T08:11:09.614Z,8.95
2022-12-12T08:13:37.962Z,7.10
2022-12-12T08:16:06.392Z,7.55
2022-12-12T08:18:33.512Z,19.10
2022-12-12T08:21:00.553Z,10.98
2022-12-12T08:23:27.498Z,8.70
2022-12-12T08:25:55.035Z,7.68
2022-12-12T08:28:21.974Z,9.60
2022-12-12T08:30:50.528Z,7.75
2022-12-12T08:33:17.790Z,9.07
2022-12-12T08:35:44.758Z,11.85
2022-12-12T08:38:11.749Z,12.75
2022-12-12T08:40:39.369Z,8.43
2022-12-12T08:43:06.420Z,10.57
2022-12-12T08:45:33.306Z,8.68
2022-12-12T08:48:00.240Z,8.10
2022-12-12T08:50:27.131Z,7.95
2022-12-12T08:52:54.499Z,10.65
2022-12-12T08:55:21.456Z,14.40
2022-12-12T08:57:48.425Z,11.23
2022-12-12T09:00:16.050Z,7.65
2022-12-12T09:02:43.472Z,7.20
2022-12-12T09:05:10.974Z,5.72
2022-12-12T09:07:38.290Z,9.52
2022-12-12T09:10:06.382Z,9.63
2022-12-12T09:12:38.286Z,10.45
2022-12-12T09:15:09.112Z,9.15
2022-12-12T09:17:36.118Z,9.45
2022-12-12T09:20:03.669Z,10.63
2022-12-12T09:22:30.590Z,8.98
2022-12-12T09:24:57.551Z,9.25
2022-12-12T09:27:24.477Z,11.77
2022-12-12T09:29:51.528Z,18.48
2022-12-12T09:32:22.747Z,15.43
2022-12-12T09:34:51.604Z,14.68
2022-12-12T09:37:18.628Z,13.20
2022-12-12T09:39:45.667Z,9.93
2022-12-12T09:42:26.085Z,13.77
2022-12-12T09:44:58.799Z,15.23
2022-12-12T09:47:47.226Z,16.77
2022-12-12T09:50:35.169Z,20.13
2022-12-12T09:53:11.240Z,15.90
2022-12-12T09:55:44.943Z,21.92
2022-12-12T10:01:23.612Z,19.27
2022-12-12T10:04:04.626Z,28.50
2022-12-12T10:06:51.747Z,23.00
2022-12-12T10:09:47.132Z,15.27
2022-12-12T10:12:16.896Z,16.70
2022-12-12T10:14:48.579Z,22.05
2022-12-12T10:17:20.436Z,18.80
2022-12-12T10:19:54.137Z,18.42
2022-12-12T10:22:31.044Z,21.88
2022-12-12T10:25:21.204Z,22.85
2022-12-12T10:27:53.843Z,17.98
2022-12-12T10:30:21.417Z,23.48
2022-12-12T10:33:03.436Z,23.60
2022-12-12T10:35:38.749Z,22.00
2022-12-12T10:38:24.319Z,17.65
2022-12-12T10:41:07.436Z,25.63
2022-12-12T10:43:52.999Z,18.83
2022-12-12T10:46:31.245Z,16.10
2022-12-12T10:48:58.355Z,9.50
2022-12-12T10:51:27.898Z,9.52
2022-12-12T10:53:55.054Z,9.63
2022-12-12T10:56:25.575Z,11.57
2022-12-12T10:58:54.972Z,8.35
2022-12-12T11:02:00.262Z,8.73
2022-12-12T11:04:27.577Z,7.38
2022-12-12T11:06:56.328Z,9.07
2022-12-12T11:09:30.851Z,8.05
2022-12-12T11:12:15.416Z,6.63
2022-12-12T11:14:52.096Z,8.30
2022-12-12T11:17:25.303Z,7.57
2022-12-12T11:19:56.319Z,6.53
2022-12-12T11:22:23.816Z,7.40
2022-12-12T11:24:51.538Z,7.47
2022-12-12T11:27:29.443Z,5.93
2022-12-12T11:30:00.522Z,7.05
2022-12-12T11:32:38.707Z,6.43
2022-12-12T11:35:21.533Z,7.57
2022-12-12T11:37:51.805Z,7.85
2022-12-12T11:40:31.089Z,8.70
2022-12-12T11:43:24.156Z,7.57
2022-12-12T11:46:05.107Z,8.00
2022-12-12T11:48:40.641Z,9.50
2022-12-12T11:51:08.111Z,10.38
2022-12-12T11:53:41.117Z,11.48
2022-12-12T11:56:31.888Z,12.68
2022-12-12T11:59:23.863Z,11.90
2022-12-12T12:02:28.428Z,9.95
2022-12-12T12:07:43.712Z,11.23
2022-12-12T12:10:48.663Z,11.90
2022-12-12T12:13:25.357Z,14.20
2022-12-12T12:16:10.626Z,11.75
2022-12-12T12:19:08.847Z,11.98
2022-12-12T12:21:42.072Z,13.40
2022-12-12T12:24:21.850Z,16.63
2022-12-12T12:27:06.705Z,14.18
2022-12-12T12:30:01.313Z,16.58
2022-12-12T12:32:37.032Z,15.05
2022-12-12T12:35:26.180Z,14.23
2022-12-12T12:38:20.383Z,13.82
2022-12-12T12:40:57.184Z,11.38
2022-12-12T12:43:24.031Z,13.55
2022-12-12T12:46:01.076Z,13.93
2022-12-12T12:48:33.483Z,14.73
2022-12-12T12:53:47.439Z,12.82
2022-12-12T12:56:26.206Z,10.90
2022-12-12T12:59:01.375Z,15.50
2022-12-12T13:01:42.417Z,13.65
2022-12-12T13:04:18.503Z,13.30
2022-12-12T13:06:57.398Z,14.80
2022-12-12T13:09:57.575Z,14.68
2022-12-12T13:12:43.719Z,15.15
2022-12-12T13:15:27.306Z,15.90
2022-12-12T13:18:13.521Z,12.13
2022-12-12T13:20:47.679Z,14.05
2022-12-12T13:23:32.688Z,14.25
2022-12-12T13:26:23.807Z,12.65
2022-12-12T13:29:23.489Z,12.82
2022-12-12T13:32:05.589Z,12.82
2022-12-12T13:34:37.147Z,14.18
2022-12-12T13:37:06.357Z,12.55
2022-12-12T13:39:35.958Z,17.65
2022-12-12T13:42:08.338Z,13.13
2022-12-12T13:44:41.518Z,15.00
2022-12-12T13:47:31.529Z,15.55
2022-12-12T13:50:10.154Z,14.82
2022-12-12T13:52:42.478Z,18.45
2022-12-12T13:55:12.889Z,19.88
2022-12-12T13:58:02.612Z,17.33
2022-12-12T14:00:37.986Z,18.40
2022-12-12T14:03:11.180Z,18.27
2022-12-12T14:05:39.881Z,18.52
2022-12-12T14:08:15.791Z,18.65
2022-12-12T14:10:45.778Z,18.02
2022-12-12T14:13:21.572Z,19.77
2022-12-12T14:16:14.134Z,15.82
2022-12-12T14:19:03.305Z,17.60
2022-12-12T14:21:43.385Z,22.40
2022-12-12T14:24:35.241Z,20.73
2022-12-12T14:27:06.634Z,21.65
2022-12-12T14:29:42.253Z,30.88
2022-12-12T14:32:12.269Z,27.02
2022-12-12T14:34:54.295Z,34.63
2022-12-12T14:37:38.143Z,31.00
2022-12-12T14:40:27.548Z,34.30
2022-12-12T14:43:19.433Z,35.05
2022-12-12T14:45:51.334Z,35.47
2022-12-12T14:48:32.739Z,31.60
2022-12-12T14:51:29.714Z,35.50
2022-12-12T14:54:00.321Z,40.50
2022-12-12T14:56:27.238Z,53.33
2022-12-12T14:59:02.992Z,48.55
2022-12-12T15:01:39.637Z,50.72
2022-12-12T15:04:09.607Z,59.50
2022-12-12T15:06:43.828Z,80.20
2022-12-12T15:09:22.988Z,60.22
2022-12-12T15:11:50.900Z,87.25
2022-12-12T15:14:21.415Z,96.82
2022-12-12T15:16:51.468Z,166.32
2022-12-12T15:19:46.835Z,128.93
2022-12-12T15:22:27.069Z,169.63
2022-12-12T15:24:55.474Z,88.40
2022-12-12T15:27:22.317Z,152.57
2022-12-12T15:29:49.787Z,172.18
2022-12-12T15:32:22.734Z,68.95
2022-12-12T15:35:03.506Z,59.65
2022-12-12T15:37:37.439Z,56.90
2022-12-12T15:40:09.404Z,60.78
2022-12-12T15:42:46.320Z,59.92
2022-12-12T15:45:42.269Z,56.33
2022-12-12T15:48:15.649Z,54.10
2022-12-12T15:50:42.623Z,48.38
2022-12-12T15:53:30.001Z,49.83
2022-12-12T15:56:10.143Z,47.17
2022-12-12T15:58:41.299Z,48.67
2022-12-12T16:01:20.692Z,49.33
2022-12-12T16:04:11.464Z,53.08
2022-12-12T16:06:39.783Z,56.88
2022-12-12T16:09:18.521Z,53.63
2022-12-12T16:11:46.963Z,69.40
2022-12-12T16:14:24.636Z,55.58
2022-12-12T16:17:29.159Z,55.40
2022-12-12T16:19:58.267Z,66.53
2022-12-12T16:22:31.421Z,46.97
2022-12-12T16:25:12.584Z,52.53
2022-12-12T16:27:39.482Z,59.17
2022-12-12T16:30:06.829Z,43.25
2022-12-12T16:32:33.907Z,56.00
2022-12-12T16:35:00.841Z,52.00
2022-12-12T16:37:27.781Z,48.75
2022-12-12T16:39:55.776Z,47.80
2022-12-12T16:42:24.101Z,51.47
2022-12-12T16:44:51.369Z,46.28
2022-12-12T16:47:21.316Z,44.53
2022-12-12T16:49:48.970Z,43.80
2022-12-12T16:52:18.194Z,36.30
2022-12-12T16:54:52.820Z,36.35
2022-12-12T16:57:21.626Z,41.63
2022-12-12T16:59:48.790Z,37.20
2022-12-12T17:02:23.968Z,28.45
2022-12-12T17:04:52.111Z,37.85
2022-12-12T17:07:19.878Z,39.20
2022-12-12T17:09:46.808Z,41.28
2022-12-12T17:12:15.320Z,36.78
2022-12-12T17:14:42.421Z,37.33
2022-12-12T17:17:10.153Z,30.75
2022-12-12T17:19:37.540Z,38.33
2022-12-12T17:22:04.726Z,32.40
2022-12-12T17:24:32.565Z,35.60
2022-12-12T17:26:59.500Z,30.95
2022-12-12T17:29:26.503Z,34.00
2022-12-12T17:31:53.481Z,31.60
2022-12-12T17:34:20.587Z,33.55
2022-12-12T17:36:47.766Z,37.17
2022-12-12T17:39:14.832Z,35.00
2022-12-12T17:41:41.768Z,30.52
2022-12-12T17:44:08.798Z,34.08
2022-12-12T17:46:36.168Z,36.58
2022-12-12T17:49:03.428Z,37.30
2022-12-12T17:51:30.614Z,43.67
2022-12-12T17:54:00.020Z,31.35
2022-12-12T17:56:27.528Z,33.35
2022-12-12T17:58:54.836Z,33.05
2022-12-12T18:01:24.894Z,38.90
2022-12-12T18:03:53.038Z,33.28
2022-12-12T18:06:21.634Z,32.75
2022-12-12T18:08:49.433Z,33.30
2022-12-12T18:11:19.630Z,31.90
2022-12-12T18:13:50.652Z,35.83
2022-12-12T18:16:18.352Z,27.88
2022-12-12T18:18:45.579Z,30.98
2022-12-12T18:21:43.289Z,33.08
2022-12-12T18:24:06.708Z,28.92
2022-12-12T18:26:33.828Z,30.50
2022-12-12T18:29:03.519Z,36.15
2022-12-12T18:31:31.506Z,28.95
2022-12-12T18:33:59.242Z,29.55
2022-12-12T18:36:28.772Z,31.67
2022-12-12T18:38:56.823Z,35.63
2022-12-12T18:41:24.289Z,31.85
2022-12-12T18:43:51.198Z,32.00
2022-12-12T18:46:20.371Z,29.58
2022-12-12T18:48:48.654Z,31.15
2022-12-12T18:51:19.150Z,30.92
2022-12-12T18:53:46.634Z,23.65
2022-12-12T18:56:27.565Z,31.85
2022-12-12T18:58:59.421Z,27.88
2022-12-12T19:01:32.846Z,26.75
2022-12-12T19:04:05.831Z,28.02
2022-12-12T19:06:36.893Z,29.35
2022-12-12T19:09:11.082Z,27.98
2022-12-12T19:11:38.832Z,23.58
2022-12-12T19:14:07.454Z,21.10
2022-12-12T19:16:34.512Z,21.33
2022-12-12T19:19:04.903Z,22.30
2022-12-12T19:21:33.791Z,21.48
2022-12-12T19:24:02.058Z,19.67
2022-12-12T19:26:29.604Z,19.75
2022-12-12T19:28:59.236Z,22.92
2022-12-12T19:31:26.622Z,24.30
2022-12-12T19:33:53.861Z,22.45
2022-12-12T19:36:23.273Z,19.75
2022-12-12T19:38:50.734Z,23.20
2022-12-12T19:41:19.851Z,20.15
2022-12-12T19:43:48.922Z,20.20
2022-12-12T19:46:19.080Z,16.90
2022-12-12T19:48:46.583Z,23.65
2022-12-12T19:51:19.448Z,22.58
2022-12-12T19:53:49.509Z,22.90
2022-12-12T19:56:22.704Z,19.90
2022-12-12T19:58:50.360Z,21.45
2022-12-12T20:01:22.968Z,18.25
2022-12-12T20:04:21.667Z,19.45
2022-12-12T20:06:49.919Z,19.95
2022-12-12T20:09:22.316Z,18.45
2022-12-12T20:11:49.750Z,18.83
2022-12-12T20:14:19.930Z,19.77
2022-12-12T20:16:47.585Z,21.30
2022-12-12T20:19:15.110Z,17.50
2022-12-12T20:22:02.828Z,24.27
2022-12-12T20:24:31.972Z,19.58
2022-12-12T20:26:59.719Z,23.75
2022-12-12T20:29:27.398Z,28.10
2022-12-12T20:31:54.620Z,21.77
2022-12-12T20:34:24.354Z,25.15
2022-12-12T20:36:51.927Z,25.23
2022-12-12T20:39:22.118Z,29.33
2022-12-12T20:41:50.439Z,24.33
2022-12-12T20:44:17.525Z,26.90
2022-12-12T20:46:46.101Z,23.40
2022-12-12T20:49:16.766Z,21.80
2022-12-12T20:51:59.680Z,29.52
2022-12-12T20:54:28.691Z,24.17
2022-12-12T20:56:56.899Z,23.35
2022-12-12T20:59:24.776Z,18.10
2022-12-12T21:01:52.253Z,19.33
2022-12-12T21:04:19.654Z,20.15
2022-12-12T21:06:51.420Z,20.33
2022-12-12T21:09:24.245Z,30.50
2022-12-12T21:11:54.509Z,22.20
2022-12-12T21:14:22.016Z,20.63
2022-12-12T21:16:49.097Z,17.15
2022-12-12T21:19:18.862Z,17.33
2022-12-12T21:21:46.288Z,14.57
2022-12-12T21:24:15.683Z,16.00
2022-12-12T21:26:43.326Z,14.68
2022-12-12T21:29:10.686Z,18.88
2022-12-12T21:31:46.604Z,15.48
2022-12-12T21:34:19.028Z,24.75
2022-12-12T21:36:45.984Z,28.55
2022-12-12T21:39:13.436Z,17.05
2022-12-12T21:41:43.796Z,17.42
2022-12-12T21:44:10.943Z,19.60
2022-12-12T21:46:41.861Z,17.00
2022-12-12T21:49:26.943Z,17.30
2022-12-12T21:51:59.601Z,18.38
2022-12-12T21:54:29.201Z,19.33
2022-12-12T21:56:57.789Z,18.95
2022-12-12T21:59:25.335Z,20.27
2022-12-12T22:01:57.887Z,15.48
2022-12-12T22:04:25.524Z,14.38
2022-12-12T22:06:52.495Z,14.73
2022-12-12T22:09:19.543Z,19.52
2022-12-12T22:11:50.002Z,19.80
2022-12-12T22:14:21.095Z,14.77
2022-12-12T22:16:48.439Z,18.40
2022-12-12T22:19:16.729Z,18.90
2022-12-12T22:21:48.276Z,19.40
2022-12-12T22:24:17.129Z,16.13
2022-12-12T22:26:47.128Z,16.20
2022-12-12T22:29:17.128Z,13.32
2022-12-12T22:31:45.115Z,19.42
2022-12-12T22:34:23.558Z,19.30
2022-12-12T22:36:51.662Z,16.05
2022-12-12T22:39:29.405Z,19.02
2022-12-12T22:41:57.152Z,22.13
2022-12-12T22:44:25.376Z,16.70
2022-12-12T22:46:54.311Z,14.93
2022-12-12T22:49:25.867Z,15.70
2022-12-12T22:51:54.908Z,18.42
2022-12-12T22:54:21.976Z,18.92
2022-12-12T22:56:49.408Z,16.27
2022-12-12T22:59:16.419Z,15.48
2022-12-12T23:01:43.694Z,13.00
2022-12-12T23:04:13.548Z,17.83
2022-12-12T23:06:41.165Z,16.95
2022-12-12T23:09:17.172Z,16.13
2022-12-12T23:11:45.621Z,20.27
2022-12-12T23:14:16.457Z,15.45
2022-12-12T23:16:44.593Z,18.75
2022-12-12T23:19:14.656Z,15.90
2022-12-12T23:21:41.901Z,15.45
2022-12-12T23:24:09.418Z,14.05
2022-12-12T23:26:37.376Z,17.48
2022-12-12T23:29:08.089Z,15.18
2022-12-12T23:31:37.320Z,16.48
2022-12-12T23:34:07.449Z,16.67
2022-12-12T23:36:34.627Z,14.60
2022-12-12T23:39:06.346Z,12.13
2022-12-12T23:41:33.716Z,17.95
2022-12-12T23:44:00.684Z,15.23
2022-12-12T23:46:33.510Z,14.25
2022-12-12T23:49:06.591Z,13.63
2022-12-12T23:51:37.474Z,13.25
2022-12-12T23:54:07.595Z,25.85
2022-12-12T23:56:34.651Z,13.77
2022-12-12T23:59:01.980Z,13.75
